Historique des mesures à Cassis (13260), France
Quotidien Résumé Juin 10, 2017 Unités:  US    Métrique   Métrique/US
« Précédent (Jour)
Suivant (Jour) »
Quotidien Hebdomadaire Mensuel Annuel Période au choix
  Maximum: Minimum: Moyenne:
Température: 32 °F 68.4 °F 75.4 °F
Point de rosée: 32 °F 51.3 °F 57.9 °F
Humidité: Humidity % 40 % 52 %
Vitesse du vent: WindSpeedKMH mph 0.0 mph 3.9 mph
Rafales: WindSpeedGustKMH mph - -
Vent:- - South
Pression: 0 in 29.9 in -
Précipitations: 0 in    
Historical Graphs
 
 
Mesures pour : Juin 10, 2017
Heure Temperature Point de rosée Pression Vent Vitesse du vent Rafales Humidité Pluie (par heure) Conditions
32 °F 32 °F 0 in Calm     Humidity % 0 in SoftwareType W/m2
00:10 68.4 °F 54 °F 29.9 in Calm   4.0 mph 60 % 0 in open2300-1.11 W/m2
01:11 68.5 °F 52.7 °F 29.9 in North 7.2 mph 7.6 mph 57 % 0 in open2300-1.11 W/m2
02:10 69.3 °F 52.9 °F 29.9 in Calm   2.1 mph 56 % 0 in open2300-1.11 W/m2
03:10 68.7 °F 51.3 °F 29.9 in ENE 3.5 mph 3.5 mph 54 % 0 in open2300-1.11 W/m2
04:10 70.3 °F 51.3 °F 29.9 in Calm   2.6 mph 51 % 0 in open2300-1.11 W/m2
06:10 70.5 °F 54 °F 29.9 in North 4.0 mph 5.8 mph 56 % 0 in open2300-1.11 W/m2
07:10 70.9 °F 56.5 °F 29.9 in WNW 8.2 mph 10.5 mph 60 % 0 in open2300-1.11 W/m2
08:10 75.4 °F 58.6 °F 29.9 in NW 2.1 mph 5.8 mph 56 % 0 in open2300-1.11 W/m2
09:10 76.1 °F 58.6 °F 29.9 in SSW 6.1 mph 6.1 mph 55 % 0 in open2300-1.11 W/m2
10:10 79 °F 61 °F 29.9 in SSE 6.8 mph 6.8 mph 54 % 0 in open2300-1.11 W/m2
11:10 84.6 °F 60.8 °F 29.9 in South 7.6 mph 7.6 mph 45 % 0 in open2300-1.11 W/m2
12:11 87.4 °F 61.5 °F 29.9 in SSW 7.6 mph 8.2 mph 42 % 0 in open2300-1.11 W/m2
13:10 89.4 °F 61.9 °F 29.9 in WSW 9.0 mph 9.0 mph 40 % 0 in open2300-1.11 W/m2
14:11 88.7 °F 63.1 °F 29.9 in SE 12.2 mph 12.2 mph 43 % 0 in open2300-1.11 W/m2
15:10 85.3 °F 64 °F 29.9 in SSE 8.7 mph 8.7 mph 49 % 0 in open2300-1.11 W/m2
16:11 83.5 °F 63 °F 29.9 in WSW 3.5 mph 6.1 mph 50 % 0 in open2300-1.11 W/m2
17:10 82.6 °F 63.1 °F 29.9 in South 2.9 mph 5.5 mph 52 % 0 in open2300-1.11 W/m2
18:11 81.3 °F 62.4 °F 29.9 in SSE 2.9 mph 4.0 mph 53 % 0 in open2300-1.11 W/m2
19:10 79.3 °F 62.8 °F 29.9 in South 1.1 mph 4.0 mph 57 % 0 in open2300-1.11 W/m2
20:10 77.2 °F 61.2 °F 29.9 in Calm   1.8 mph 58 % 0 in open2300-1.11 W/m2
21:10 75.9 °F 61.2 °F 29.9 in Calm     60 % 0 in open2300-1.11 W/m2
22:10 73.9 °F 61 °F 29.9 in Calm     64 % 0 in open2300-1.11 W/m2
23:10 72.1 °F 59.7 °F 29.9 in Calm     65 % 0 in open2300-1.11 W/m2
Observations météo à CASSIS
WU-History script by Weather Underground - 1 mb